sensor_id;sensor_type;location;lat;lon;timestamp;temperature;humidity
78297;DHT22;67555;47.660;19.622;2024-03-22T00:01:52;10.00;60.20
78297;DHT22;67555;47.660;19.622;2024-03-22T00:04:18;10.00;60.30
78297;DHT22;67555;47.660;19.622;2024-03-22T00:06:45;9.90;60.50
78297;DHT22;67555;47.660;19.622;2024-03-22T00:09:11;9.70;60.80
78297;DHT22;67555;47.660;19.622;2024-03-22T00:11:38;9.70;61.00
78297;DHT22;67555;47.660;19.622;2024-03-22T00:14:04;9.70;61.00
78297;DHT22;67555;47.660;19.622;2024-03-22T00:16:30;9.70;60.90
78297;DHT22;67555;47.660;19.622;2024-03-22T00:18:56;9.70;60.90
78297;DHT22;67555;47.660;19.622;2024-03-22T00:21:22;9.60;61.10
78297;DHT22;67555;47.660;19.622;2024-03-22T00:23:48;9.50;61.30
78297;DHT22;67555;47.660;19.622;2024-03-22T00:26:13;9.40;61.60
78297;DHT22;67555;47.660;19.622;2024-03-22T00:28:39;9.40;61.80
78297;DHT22;67555;47.660;19.622;2024-03-22T00:31:05;9.40;61.90
78297;DHT22;67555;47.660;19.622;2024-03-22T00:33:30;9.40;61.80
78297;DHT22;67555;47.660;19.622;2024-03-22T00:35:57;9.40;61.90
78297;DHT22;67555;47.660;19.622;2024-03-22T00:38:23;9.40;62.00
78297;DHT22;67555;47.660;19.622;2024-03-22T00:40:48;9.30;62.10
78297;DHT22;67555;47.660;19.622;2024-03-22T00:43:14;9.30;62.10
78297;DHT22;67555;47.660;19.622;2024-03-22T00:45:40;9.20;62.10
78297;DHT22;67555;47.660;19.622;2024-03-22T00:48:06;9.20;62.20
78297;DHT22;67555;47.660;19.622;2024-03-22T00:50:32;8.90;62.90
78297;DHT22;67555;47.660;19.622;2024-03-22T00:52:58;8.60;63.60
78297;DHT22;67555;47.660;19.622;2024-03-22T00:55:23;8.40;64.10
78297;DHT22;67555;47.660;19.622;2024-03-22T00:57:49;8.30;64.60
78297;DHT22;67555;47.660;19.622;2024-03-22T01:00:17;8.20;64.80
78297;DHT22;67555;47.660;19.622;2024-03-22T01:02:43;8.20;64.90
78297;DHT22;67555;47.660;19.622;2024-03-22T01:05:09;8.30;64.80
78297;DHT22;67555;47.660;19.622;2024-03-22T01:07:36;8.30;64.60
78297;DHT22;67555;47.660;19.622;2024-03-22T01:10:05;8.40;64.40
78297;DHT22;67555;47.660;19.622;2024-03-22T01:12:31;8.60;64.20
78297;DHT22;67555;47.660;19.622;2024-03-22T01:14:57;8.60;63.90
78297;DHT22;67555;47.660;19.622;2024-03-22T01:17:23;8.60;63.90
78297;DHT22;67555;47.660;19.622;2024-03-22T01:19:49;8.70;63.90
78297;DHT22;67555;47.660;19.622;2024-03-22T01:22:16;8.60;64.00
78297;DHT22;67555;47.660;19.622;2024-03-22T01:24:42;8.60;64.00
78297;DHT22;67555;47.660;19.622;2024-03-22T01:27:07;8.80;64.00
78297;DHT22;67555;47.660;19.622;2024-03-22T01:29:33;8.60;64.10
78297;DHT22;67555;47.660;19.622;2024-03-22T01:31:59;8.60;64.20
78297;DHT22;67555;47.660;19.622;2024-03-22T01:34:25;8.60;64.50
78297;DHT22;67555;47.660;19.622;2024-03-22T01:36:51;8.50;64.90
78297;DHT22;67555;47.660;19.622;2024-03-22T01:39:18;8.40;65.50
78297;DHT22;67555;47.660;19.622;2024-03-22T01:41:49;8.30;66.10
78297;DHT22;67555;47.660;19.622;2024-03-22T01:44:15;8.10;66.60
78297;DHT22;67555;47.660;19.622;2024-03-22T01:46:41;8.10;67.10
78297;DHT22;67555;47.660;19.622;2024-03-22T01:49:12;8.00;67.20
78297;DHT22;67555;47.660;19.622;2024-03-22T01:51:42;8.00;67.20
78297;DHT22;67555;47.660;19.622;2024-03-22T01:54:09;8.00;67.50
78297;DHT22;67555;47.660;19.622;2024-03-22T01:56:38;8.00;67.80
78297;DHT22;67555;47.660;19.622;2024-03-22T01:59:05;8.00;67.90
78297;DHT22;67555;47.660;19.622;2024-03-22T02:01:31;8.00;68.20
78297;DHT22;67555;47.660;19.622;2024-03-22T02:03:57;8.00;68.30
78297;DHT22;67555;47.660;19.622;2024-03-22T02:06:23;8.00;68.00
78297;DHT22;67555;47.660;19.622;2024-03-22T02:08:48;8.10;67.70
78297;DHT22;67555;47.660;19.622;2024-03-22T02:11:14;8.30;67.40
78297;DHT22;67555;47.660;19.622;2024-03-22T02:13:40;8.40;67.00
78297;DHT22;67555;47.660;19.622;2024-03-22T02:16:06;8.50;66.60
78297;DHT22;67555;47.660;19.622;2024-03-22T02:18:32;8.60;66.30
78297;DHT22;67555;47.660;19.622;2024-03-22T02:20:58;8.80;66.00
78297;DHT22;67555;47.660;19.622;2024-03-22T02:23:37;9.00;65.70
78297;DHT22;67555;47.660;19.622;2024-03-22T02:26:03;9.00;65.50
78297;DHT22;67555;47.660;19.622;2024-03-22T02:28:30;9.10;65.30
78297;DHT22;67555;47.660;19.622;2024-03-22T02:30:58;9.10;65.30
78297;DHT22;67555;47.660;19.622;2024-03-22T02:33:24;9.00;65.40
78297;DHT22;67555;47.660;19.622;2024-03-22T02:35:50;9.00;65.50
78297;DHT22;67555;47.660;19.622;2024-03-22T02:38:17;9.00;65.50
78297;DHT22;67555;47.660;19.622;2024-03-22T02:40:43;9.00;65.60
78297;DHT22;67555;47.660;19.622;2024-03-22T02:43:10;9.00;65.70
78297;DHT22;67555;47.660;19.622;2024-03-22T02:45:36;9.00;65.70
78297;DHT22;67555;47.660;19.622;2024-03-22T02:48:01;9.00;65.70
78297;DHT22;67555;47.660;19.622;2024-03-22T02:50:27;9.10;65.70
78297;DHT22;67555;47.660;19.622;2024-03-22T02:52:53;9.20;65.50
78297;DHT22;67555;47.660;19.622;2024-03-22T02:55:19;9.20;65.30
78297;DHT22;67555;47.660;19.622;2024-03-22T02:57:44;9.00;65.40
78297;DHT22;67555;47.660;19.622;2024-03-22T03:00:10;9.00;65.60
78297;DHT22;67555;47.660;19.622;2024-03-22T03:02:36;8.90;66.00
78297;DHT22;67555;47.660;19.622;2024-03-22T03:05:02;8.80;66.30
78297;DHT22;67555;47.660;19.622;2024-03-22T03:07:28;8.60;66.60
78297;DHT22;67555;47.660;19.622;2024-03-22T03:09:54;8.70;66.60
78297;DHT22;67555;47.660;19.622;2024-03-22T03:12:19;8.80;66.40
78297;DHT22;67555;47.660;19.622;2024-03-22T03:14:45;8.90;66.30
78297;DHT22;67555;47.660;19.622;2024-03-22T03:17:11;8.90;66.20
78297;DHT22;67555;47.660;19.622;2024-03-22T03:19:37;8.70;66.50
78297;DHT22;67555;47.660;19.622;2024-03-22T03:22:03;8.60;66.70
78297;DHT22;67555;47.660;19.622;2024-03-22T03:24:28;8.60;66.90
78297;DHT22;67555;47.660;19.622;2024-03-22T03:26:54;8.60;66.80
78297;DHT22;67555;47.660;19.622;2024-03-22T03:29:20;8.60;66.80
78297;DHT22;67555;47.660;19.622;2024-03-22T03:31:45;8.60;66.90
78297;DHT22;67555;47.660;19.622;2024-03-22T03:34:11;8.60;67.00
78297;DHT22;67555;47.660;19.622;2024-03-22T03:36:37;8.60;67.00
78297;DHT22;67555;47.660;19.622;2024-03-22T03:39:03;8.60;67.00
78297;DHT22;67555;47.660;19.622;2024-03-22T03:41:29;8.60;67.10
78297;DHT22;67555;47.660;19.622;2024-03-22T03:43:55;8.60;67.20
78297;DHT22;67555;47.660;19.622;2024-03-22T03:46:21;8.60;67.20
78297;DHT22;67555;47.660;19.622;2024-03-22T03:48:46;8.70;67.10
78297;DHT22;67555;47.660;19.622;2024-03-22T03:51:12;8.60;67.10
78297;DHT22;67555;47.660;19.622;2024-03-22T03:53:38;8.60;67.50
78297;DHT22;67555;47.660;19.622;2024-03-22T03:56:03;8.40;68.30
78297;DHT22;67555;47.660;19.622;2024-03-22T03:58:29;8.30;68.60
78297;DHT22;67555;47.660;19.622;2024-03-22T04:00:55;8.20;68.90
78297;DHT22;67555;47.660;19.622;2024-03-22T04:03:23;8.20;69.00
78297;DHT22;67555;47.660;19.622;2024-03-22T04:05:59;8.20;69.00
78297;DHT22;67555;47.660;19.622;2024-03-22T04:08:28;8.20;69.00
78297;DHT22;67555;47.660;19.622;2024-03-22T04:10:56;8.20;69.00
78297;DHT22;67555;47.660;19.622;2024-03-22T04:13:23;8.30;68.90
78297;DHT22;67555;47.660;19.622;2024-03-22T04:15:48;8.30;68.60
78297;DHT22;67555;47.660;19.622;2024-03-22T04:18:14;8.40;68.30
78297;DHT22;67555;47.660;19.622;2024-03-22T04:20:40;8.50;68.10
78297;DHT22;67555;47.660;19.622;2024-03-22T04:23:05;8.60;67.90
78297;DHT22;67555;47.660;19.622;2024-03-22T04:25:31;8.70;67.60
78297;DHT22;67555;47.660;19.622;2024-03-22T04:27:57;8.80;67.30
78297;DHT22;67555;47.660;19.622;2024-03-22T04:30:22;8.90;67.20
78297;DHT22;67555;47.660;19.622;2024-03-22T04:32:48;8.80;67.10
78297;DHT22;67555;47.660;19.622;2024-03-22T04:35:14;8.70;67.50
78297;DHT22;67555;47.660;19.622;2024-03-22T04:37:39;8.60;67.90
78297;DHT22;67555;47.660;19.622;2024-03-22T04:40:05;8.50;68.10
78297;DHT22;67555;47.660;19.622;2024-03-22T04:42:31;8.50;68.10
78297;DHT22;67555;47.660;19.622;2024-03-22T04:44:57;8.50;68.30
78297;DHT22;67555;47.660;19.622;2024-03-22T04:47:23;8.50;68.30
78297;DHT22;67555;47.660;19.622;2024-03-22T04:49:49;8.50;68.40
78297;DHT22;67555;47.660;19.622;2024-03-22T04:52:15;8.50;68.50
78297;DHT22;67555;47.660;19.622;2024-03-22T04:54:41;8.40;69.10
78297;DHT22;67555;47.660;19.622;2024-03-22T04:57:06;8.30;69.40
78297;DHT22;67555;47.660;19.622;2024-03-22T04:59:32;8.20;69.60
78297;DHT22;67555;47.660;19.622;2024-03-22T05:01:58;8.30;69.50
78297;DHT22;67555;47.660;19.622;2024-03-22T05:04:23;8.40;69.40
78297;DHT22;67555;47.660;19.622;2024-03-22T05:06:49;8.40;69.40
78297;DHT22;67555;47.660;19.622;2024-03-22T05:09:15;8.40;69.50
78297;DHT22;67555;47.660;19.622;2024-03-22T05:11:41;8.40;69.40
78297;DHT22;67555;47.660;19.622;2024-03-22T05:14:06;8.40;69.40
78297;DHT22;67555;47.660;19.622;2024-03-22T05:16:32;8.40;69.60
78297;DHT22;67555;47.660;19.622;2024-03-22T05:18:58;8.40;69.70
78297;DHT22;67555;47.660;19.622;2024-03-22T05:21:24;8.40;69.80
78297;DHT22;67555;47.660;19.622;2024-03-22T05:23:50;8.50;69.60
78297;DHT22;67555;47.660;19.622;2024-03-22T05:26:15;8.50;69.60
78297;DHT22;67555;47.660;19.622;2024-03-22T05:28:41;8.60;69.60
78297;DHT22;67555;47.660;19.622;2024-03-22T05:31:07;8.60;69.50
78297;DHT22;67555;47.660;19.622;2024-03-22T05:33:33;8.60;69.50
78297;DHT22;67555;47.660;19.622;2024-03-22T05:35:59;8.80;69.10
78297;DHT22;67555;47.660;19.622;2024-03-22T05:38:25;9.00;68.70
78297;DHT22;67555;47.660;19.622;2024-03-22T05:40:50;9.20;68.40
78297;DHT22;67555;47.660;19.622;2024-03-22T05:43:16;9.30;68.20
78297;DHT22;67555;47.660;19.622;2024-03-22T05:45:42;9.40;68.00
78297;DHT22;67555;47.660;19.622;2024-03-22T05:48:07;9.50;67.80
78297;DHT22;67555;47.660;19.622;2024-03-22T05:50:33;9.60;67.70
78297;DHT22;67555;47.660;19.622;2024-03-22T05:52:59;9.70;67.50
78297;DHT22;67555;47.660;19.622;2024-03-22T05:55:24;9.70;67.40
78297;DHT22;67555;47.660;19.622;2024-03-22T05:57:52;9.80;67.30
78297;DHT22;67555;47.660;19.622;2024-03-22T06:00:18;9.80;67.30
78297;DHT22;67555;47.660;19.622;2024-03-22T06:02:44;9.80;67.30
78297;DHT22;67555;47.660;19.622;2024-03-22T06:05:09;9.80;67.40
78297;DHT22;67555;47.660;19.622;2024-03-22T06:07:35;10.00;67.30
78297;DHT22;67555;47.660;19.622;2024-03-22T06:10:08;10.00;67.20
78297;DHT22;67555;47.660;19.622;2024-03-22T06:12:35;10.20;67.10
78297;DHT22;67555;47.660;19.622;2024-03-22T06:15:01;10.30;66.90
78297;DHT22;67555;47.660;19.622;2024-03-22T06:17:32;10.40;66.80
78297;DHT22;67555;47.660;19.622;2024-03-22T06:19:58;10.40;66.90
78297;DHT22;67555;47.660;19.622;2024-03-22T06:22:25;10.50;66.90
78297;DHT22;67555;47.660;19.622;2024-03-22T06:24:50;10.60;66.90
78297;DHT22;67555;47.660;19.622;2024-03-22T06:27:16;10.70;66.90
78297;DHT22;67555;47.660;19.622;2024-03-22T06:29:42;10.70;66.90
78297;DHT22;67555;47.660;19.622;2024-03-22T06:32:08;10.70;67.10
78297;DHT22;67555;47.660;19.622;2024-03-22T06:34:34;10.70;67.10
78297;DHT22;67555;47.660;19.622;2024-03-22T06:37:00;10.60;67.20
78297;DHT22;67555;47.660;19.622;2024-03-22T06:39:25;10.50;67.40
78297;DHT22;67555;47.660;19.622;2024-03-22T06:41:51;10.50;67.60
78297;DHT22;67555;47.660;19.622;2024-03-22T06:44:17;10.60;67.60
78297;DHT22;67555;47.660;19.622;2024-03-22T06:46:42;10.70;67.30
78297;DHT22;67555;47.660;19.622;2024-03-22T06:49:08;10.80;67.20
78297;DHT22;67555;47.660;19.622;2024-03-22T06:51:34;10.90;67.00
78297;DHT22;67555;47.660;19.622;2024-03-22T06:53:59;11.10;66.60
78297;DHT22;67555;47.660;19.622;2024-03-22T06:56:25;11.40;66.10
78297;DHT22;67555;47.660;19.622;2024-03-22T06:58:51;11.70;65.40
78297;DHT22;67555;47.660;19.622;2024-03-22T07:01:17;11.90;65.00
78297;DHT22;67555;47.660;19.622;2024-03-22T07:03:42;12.00;64.50
78297;DHT22;67555;47.660;19.622;2024-03-22T07:06:11;12.10;64.30
78297;DHT22;67555;47.660;19.622;2024-03-22T07:08:38;12.00;64.80
78297;DHT22;67555;47.660;19.622;2024-03-22T07:11:07;12.00;65.30
78297;DHT22;67555;47.660;19.622;2024-03-22T07:13:34;12.00;65.80
78297;DHT22;67555;47.660;19.622;2024-03-22T07:16:00;12.00;66.00
78297;DHT22;67555;47.660;19.622;2024-03-22T07:18:25;12.10;65.90
78297;DHT22;67555;47.660;19.622;2024-03-22T07:20:51;12.30;65.60
78297;DHT22;67555;47.660;19.622;2024-03-22T07:23:17;12.50;65.40
78297;DHT22;67555;47.660;19.622;2024-03-22T07:25:43;12.50;65.20
78297;DHT22;67555;47.660;19.622;2024-03-22T07:28:11;12.80;65.00
78297;DHT22;67555;47.660;19.622;2024-03-22T07:30:37;12.90;64.70
78297;DHT22;67555;47.660;19.622;2024-03-22T07:33:03;13.10;64.60
78297;DHT22;67555;47.660;19.622;2024-03-22T07:35:29;13.10;64.40
78297;DHT22;67555;47.660;19.622;2024-03-22T07:37:56;13.20;64.30
78297;DHT22;67555;47.660;19.622;2024-03-22T07:40:22;13.30;64.10
78297;DHT22;67555;47.660;19.622;2024-03-22T07:42:48;13.30;64.00
78297;DHT22;67555;47.660;19.622;2024-03-22T07:45:14;13.50;63.50
78297;DHT22;67555;47.660;19.622;2024-03-22T07:47:39;13.60;63.10
78297;DHT22;67555;47.660;19.622;2024-03-22T07:50:07;13.60;62.60
78297;DHT22;67555;47.660;19.622;2024-03-22T07:52:34;13.80;62.30
78297;DHT22;67555;47.660;19.622;2024-03-22T07:54:59;13.90;61.60
78297;DHT22;67555;47.660;19.622;2024-03-22T07:57:28;14.00;61.00
78297;DHT22;67555;47.660;19.622;2024-03-22T07:59:59;14.00;60.40
78297;DHT22;67555;47.660;19.622;2024-03-22T08:02:24;14.10;60.30
78297;DHT22;67555;47.660;19.622;2024-03-22T08:04:50;14.20;60.00
78297;DHT22;67555;47.660;19.622;2024-03-22T08:07:16;14.30;59.70
78297;DHT22;67555;47.660;19.622;2024-03-22T08:09:41;14.40;59.30
78297;DHT22;67555;47.660;19.622;2024-03-22T08:12:07;14.50;59.00
78297;DHT22;67555;47.660;19.622;2024-03-22T08:14:33;14.70;58.50
78297;DHT22;67555;47.660;19.622;2024-03-22T08:16:58;14.80;58.00
78297;DHT22;67555;47.660;19.622;2024-03-22T08:19:24;15.00;57.80
78297;DHT22;67555;47.660;19.622;2024-03-22T08:21:50;15.20;57.50
78297;DHT22;67555;47.660;19.622;2024-03-22T08:24:16;15.50;56.80
78297;DHT22;67555;47.660;19.622;2024-03-22T08:26:42;15.70;56.40
78297;DHT22;67555;47.660;19.622;2024-03-22T08:29:10;15.80;55.90
78297;DHT22;67555;47.660;19.622;2024-03-22T08:31:37;15.80;55.90
78297;DHT22;67555;47.660;19.622;2024-03-22T08:34:02;16.00;55.80
78297;DHT22;67555;47.660;19.622;2024-03-22T08:36:31;16.10;55.60
78297;DHT22;67555;47.660;19.622;2024-03-22T08:38:56;16.20;55.30
78297;DHT22;67555;47.660;19.622;2024-03-22T08:41:22;16.30;55.20
78297;DHT22;67555;47.660;19.622;2024-03-22T08:43:48;16.40;55.00
78297;DHT22;67555;47.660;19.622;2024-03-22T08:46:14;16.50;54.40
78297;DHT22;67555;47.660;19.622;2024-03-22T08:48:39;16.50;54.40
78297;DHT22;67555;47.660;19.622;2024-03-22T08:51:05;16.50;54.20
78297;DHT22;67555;47.660;19.622;2024-03-22T08:53:31;16.50;53.90
78297;DHT22;67555;47.660;19.622;2024-03-22T08:55:56;16.50;54.10
78297;DHT22;67555;47.660;19.622;2024-03-22T08:58:22;16.40;54.00
78297;DHT22;67555;47.660;19.622;2024-03-22T09:00:48;16.40;54.10
78297;DHT22;67555;47.660;19.622;2024-03-22T09:03:13;16.50;54.10
78297;DHT22;67555;47.660;19.622;2024-03-22T09:05:40;16.60;54.00
78297;DHT22;67555;47.660;19.622;2024-03-22T09:08:06;16.80;53.70
78297;DHT22;67555;47.660;19.622;2024-03-22T09:10:32;16.90;53.50
78297;DHT22;67555;47.660;19.622;2024-03-22T09:12:58;17.00;53.50
78297;DHT22;67555;47.660;19.622;2024-03-22T09:15:23;17.00;53.20
78297;DHT22;67555;47.660;19.622;2024-03-22T09:17:51;16.90;53.00
78297;DHT22;67555;47.660;19.622;2024-03-22T09:20:16;17.00;52.80
78297;DHT22;67555;47.660;19.622;2024-03-22T09:22:42;16.90;52.80
78297;DHT22;67555;47.660;19.622;2024-03-22T09:25:08;16.90;52.20
78297;DHT22;67555;47.660;19.622;2024-03-22T09:27:34;16.80;52.40
78297;DHT22;67555;47.660;19.622;2024-03-22T09:29:59;16.90;52.90
78297;DHT22;67555;47.660;19.622;2024-03-22T09:32:26;17.00;53.00
78297;DHT22;67555;47.660;19.622;2024-03-22T09:34:52;17.20;53.10
78297;DHT22;67555;47.660;19.622;2024-03-22T09:37:18;17.50;52.90
78297;DHT22;67555;47.660;19.622;2024-03-22T09:39:44;17.60;52.70
78297;DHT22;67555;47.660;19.622;2024-03-22T09:42:15;17.70;52.70
78297;DHT22;67555;47.660;19.622;2024-03-22T09:44:46;17.80;52.60
78297;DHT22;67555;47.660;19.622;2024-03-22T09:47:17;18.00;52.30
78297;DHT22;67555;47.660;19.622;2024-03-22T09:49:43;18.00;51.80
78297;DHT22;67555;47.660;19.622;2024-03-22T09:52:14;18.20;51.70
78297;DHT22;67555;47.660;19.622;2024-03-22T09:54:43;18.40;51.60
78297;DHT22;67555;47.660;19.622;2024-03-22T09:57:14;18.60;51.20
78297;DHT22;67555;47.660;19.622;2024-03-22T09:59:46;18.60;50.70
78297;DHT22;67555;47.660;19.622;2024-03-22T10:02:12;18.70;50.80
78297;DHT22;67555;47.660;19.622;2024-03-22T10:04:41;18.60;50.40
78297;DHT22;67555;47.660;19.622;2024-03-22T10:07:07;18.50;50.50
78297;DHT22;67555;47.660;19.622;2024-03-22T10:09:34;18.40;50.30
78297;DHT22;67555;47.660;19.622;2024-03-22T10:12:00;18.30;49.60
78297;DHT22;67555;47.660;19.622;2024-03-22T10:14:26;18.10;49.40
78297;DHT22;67555;47.660;19.622;2024-03-22T10:16:53;17.80;49.30
78297;DHT22;67555;47.660;19.622;2024-03-22T10:19:23;17.70;49.70
78297;DHT22;67555;47.660;19.622;2024-03-22T10:22:05;17.80;49.80
78297;DHT22;67555;47.660;19.622;2024-03-22T10:24:33;17.80;49.90
78297;DHT22;67555;47.660;19.622;2024-03-22T10:26:59;18.00;49.90
78297;DHT22;67555;47.660;19.622;2024-03-22T10:29:25;18.00;49.70
78297;DHT22;67555;47.660;19.622;2024-03-22T10:31:55;18.10;49.80
78297;DHT22;67555;47.660;19.622;2024-03-22T10:34:22;18.30;49.60
78297;DHT22;67555;47.660;19.622;2024-03-22T10:36:48;18.50;49.30
78297;DHT22;67555;47.660;19.622;2024-03-22T10:39:17;18.70;48.90
78297;DHT22;67555;47.660;19.622;2024-03-22T10:41:47;18.80;48.80
78297;DHT22;67555;47.660;19.622;2024-03-22T10:44:14;18.90;48.80
78297;DHT22;67555;47.660;19.622;2024-03-22T10:46:47;18.90;48.60
78297;DHT22;67555;47.660;19.622;2024-03-22T10:49:18;19.10;48.50
78297;DHT22;67555;47.660;19.622;2024-03-22T10:51:59;19.30;48.20
78297;DHT22;67555;47.660;19.622;2024-03-22T10:54:32;19.50;47.90
78297;DHT22;67555;47.660;19.622;2024-03-22T10:56:59;19.50;47.80
78297;DHT22;67555;47.660;19.622;2024-03-22T10:59:25;19.70;47.80
78297;DHT22;67555;47.660;19.622;2024-03-22T11:01:51;20.00;47.40
78297;DHT22;67555;47.660;19.622;2024-03-22T11:04:17;20.30;47.00
78297;DHT22;67555;47.660;19.622;2024-03-22T11:06:50;20.50;46.40
78297;DHT22;67555;47.660;19.622;2024-03-22T11:09:23;20.50;45.80
78297;DHT22;67555;47.660;19.622;2024-03-22T11:11:51;20.70;45.80
78297;DHT22;67555;47.660;19.622;2024-03-22T11:14:17;20.90;45.40
78297;DHT22;67555;47.660;19.622;2024-03-22T11:16:47;20.90;45.30
78297;DHT22;67555;47.660;19.622;2024-03-22T11:19:13;20.80;44.80
78297;DHT22;67555;47.660;19.622;2024-03-22T11:21:39;20.50;44.20
78297;DHT22;67555;47.660;19.622;2024-03-22T11:24:05;20.10;44.20
78297;DHT22;67555;47.660;19.622;2024-03-22T11:26:32;19.90;43.80
78297;DHT22;67555;47.660;19.622;2024-03-22T11:28:58;19.70;43.80
78297;DHT22;67555;47.660;19.622;2024-03-22T11:31:24;19.50;43.60
78297;DHT22;67555;47.660;19.622;2024-03-22T11:33:53;19.30;44.00
78297;DHT22;67555;47.660;19.622;2024-03-22T11:36:18;19.20;44.40
78297;DHT22;67555;47.660;19.622;2024-03-22T11:38:44;19.30;45.00
78297;DHT22;67555;47.660;19.622;2024-03-22T11:41:10;19.50;45.20
78297;DHT22;67555;47.660;19.622;2024-03-22T11:43:37;19.70;44.90
78297;DHT22;67555;47.660;19.622;2024-03-22T11:46:03;19.80;44.80
78297;DHT22;67555;47.660;19.622;2024-03-22T11:48:28;19.90;45.00
78297;DHT22;67555;47.660;19.622;2024-03-22T11:50:54;20.10;44.60
78297;DHT22;67555;47.660;19.622;2024-03-22T11:53:21;20.30;44.60
78297;DHT22;67555;47.660;19.622;2024-03-22T11:55:49;20.50;44.30
78297;DHT22;67555;47.660;19.622;2024-03-22T11:58:15;20.70;43.90
78297;DHT22;67555;47.660;19.622;2024-03-22T12:00:42;20.80;43.30
78297;DHT22;67555;47.660;19.622;2024-03-22T12:03:08;20.80;43.10
78297;DHT22;67555;47.660;19.622;2024-03-22T12:05:34;20.80;43.10
78297;DHT22;67555;47.660;19.622;2024-03-22T12:08:00;20.90;42.80
78297;DHT22;67555;47.660;19.622;2024-03-22T12:10:25;20.90;42.80
78297;DHT22;67555;47.660;19.622;2024-03-22T12:12:51;20.90;42.80
78297;DHT22;67555;47.660;19.622;2024-03-22T12:15:19;20.90;42.60
78297;DHT22;67555;47.660;19.622;2024-03-22T12:17:44;20.90;42.50
78297;DHT22;67555;47.660;19.622;2024-03-22T12:20:10;20.80;42.20
78297;DHT22;67555;47.660;19.622;2024-03-22T12:22:36;20.70;42.00
78297;DHT22;67555;47.660;19.622;2024-03-22T12:25:02;20.60;42.00
78297;DHT22;67555;47.660;19.622;2024-03-22T12:27:30;20.60;42.10
78297;DHT22;67555;47.660;19.622;2024-03-22T12:29:55;20.60;42.00
78297;DHT22;67555;47.660;19.622;2024-03-22T12:32:21;20.70;42.00
78297;DHT22;67555;47.660;19.622;2024-03-22T12:34:47;20.80;41.80
78297;DHT22;67555;47.660;19.622;2024-03-22T12:37:13;20.80;41.70
78297;DHT22;67555;47.660;19.622;2024-03-22T12:39:39;20.70;41.50
78297;DHT22;67555;47.660;19.622;2024-03-22T12:42:05;20.70;41.60
78297;DHT22;67555;47.660;19.622;2024-03-22T12:44:31;20.60;41.50
78297;DHT22;67555;47.660;19.622;2024-03-22T12:46:57;20.60;41.70
78297;DHT22;67555;47.660;19.622;2024-03-22T12:49:23;20.50;41.50
78297;DHT22;67555;47.660;19.622;2024-03-22T12:51:49;20.40;41.90
78297;DHT22;67555;47.660;19.622;2024-03-22T12:54:15;20.30;42.10
78297;DHT22;67555;47.660;19.622;2024-03-22T12:56:44;20.40;42.50
78297;DHT22;67555;47.660;19.622;2024-03-22T12:59:10;20.30;42.70
78297;DHT22;67555;47.660;19.622;2024-03-22T13:01:35;20.40;42.80
78297;DHT22;67555;47.660;19.622;2024-03-22T13:04:02;20.40;42.70
78297;DHT22;67555;47.660;19.622;2024-03-22T13:06:28;20.50;42.70
78297;DHT22;67555;47.660;19.622;2024-03-22T13:08:53;20.40;42.80
78297;DHT22;67555;47.660;19.622;2024-03-22T13:11:19;20.40;42.80
78297;DHT22;67555;47.660;19.622;2024-03-22T13:13:45;20.40;42.80
78297;DHT22;67555;47.660;19.622;2024-03-22T13:16:10;20.10;42.30
78297;DHT22;67555;47.660;19.622;2024-03-22T13:18:40;20.10;42.80
78297;DHT22;67555;47.660;19.622;2024-03-22T13:21:06;20.00;42.80
78297;DHT22;67555;47.660;19.622;2024-03-22T13:23:31;20.00;42.80
78297;DHT22;67555;47.660;19.622;2024-03-22T13:26:05;20.10;42.80
78297;DHT22;67555;47.660;19.622;2024-03-22T13:28:32;20.10;42.60
78297;DHT22;67555;47.660;19.622;2024-03-22T13:31:02;20.10;42.40
78297;DHT22;67555;47.660;19.622;2024-03-22T13:33:32;20.10;42.50
78297;DHT22;67555;47.660;19.622;2024-03-22T13:35:57;20.10;42.50
78297;DHT22;67555;47.660;19.622;2024-03-22T13:38:24;20.20;42.50
78297;DHT22;67555;47.660;19.622;2024-03-22T13:40:56;20.20;42.30
78297;DHT22;67555;47.660;19.622;2024-03-22T13:43:22;20.20;42.20
78297;DHT22;67555;47.660;19.622;2024-03-22T13:45:52;20.20;42.30
78297;DHT22;67555;47.660;19.622;2024-03-22T13:48:24;20.10;42.50
78297;DHT22;67555;47.660;19.622;2024-03-22T13:50:52;20.00;42.60
78297;DHT22;67555;47.660;19.622;2024-03-22T13:53:18;19.60;42.40
78297;DHT22;67555;47.660;19.622;2024-03-22T13:55:44;19.10;43.00
78297;DHT22;67555;47.660;19.622;2024-03-22T13:58:10;18.80;44.00
78297;DHT22;67555;47.660;19.622;2024-03-22T14:00:35;18.70;44.70
78297;DHT22;67555;47.660;19.622;2024-03-22T14:03:01;18.50;45.30
78297;DHT22;67555;47.660;19.622;2024-03-22T14:05:27;18.20;45.50
78297;DHT22;67555;47.660;19.622;2024-03-22T14:07:53;18.20;45.80
78297;DHT22;67555;47.660;19.622;2024-03-22T14:10:18;18.30;45.70
78297;DHT22;67555;47.660;19.622;2024-03-22T14:12:46;18.60;45.50
78297;DHT22;67555;47.660;19.622;2024-03-22T14:15:12;18.60;45.00
78297;DHT22;67555;47.660;19.622;2024-03-22T14:17:38;18.60;44.70
78297;DHT22;67555;47.660;19.622;2024-03-22T14:20:05;18.50;44.70
78297;DHT22;67555;47.660;19.622;2024-03-22T14:22:38;18.30;45.10
78297;DHT22;67555;47.660;19.622;2024-03-22T14:25:04;18.10;45.40
78297;DHT22;67555;47.660;19.622;2024-03-22T14:27:29;18.00;45.80
78297;DHT22;67555;47.660;19.622;2024-03-22T14:29:55;17.90;46.00
78297;DHT22;67555;47.660;19.622;2024-03-22T14:32:21;17.80;45.80
78297;DHT22;67555;47.660;19.622;2024-03-22T14:34:47;17.80;46.00
78297;DHT22;67555;47.660;19.622;2024-03-22T14:37:12;17.80;46.40
78297;DHT22;67555;47.660;19.622;2024-03-22T14:39:38;17.70;46.30
78297;DHT22;67555;47.660;19.622;2024-03-22T14:42:04;17.80;46.40
78297;DHT22;67555;47.660;19.622;2024-03-22T14:44:31;17.60;46.40
78297;DHT22;67555;47.660;19.622;2024-03-22T14:46:56;17.50;46.50
78297;DHT22;67555;47.660;19.622;2024-03-22T14:49:24;17.40;46.80
78297;DHT22;67555;47.660;19.622;2024-03-22T14:51:50;17.20;47.10
78297;DHT22;67555;47.660;19.622;2024-03-22T14:54:16;17.10;47.10
78297;DHT22;67555;47.660;19.622;2024-03-22T14:56:42;17.00;47.30
78297;DHT22;67555;47.660;19.622;2024-03-22T14:59:08;17.00;47.40
78297;DHT22;67555;47.660;19.622;2024-03-22T15:01:33;17.00;47.20
78297;DHT22;67555;47.660;19.622;2024-03-22T15:04:01;16.90;47.20
78297;DHT22;67555;47.660;19.622;2024-03-22T15:06:26;16.80;46.90
78297;DHT22;67555;47.660;19.622;2024-03-22T15:08:55;16.70;47.10
78297;DHT22;67555;47.660;19.622;2024-03-22T15:11:20;16.60;47.30
78297;DHT22;67555;47.660;19.622;2024-03-22T15:13:47;16.50;47.60
78297;DHT22;67555;47.660;19.622;2024-03-22T15:16:12;16.40;47.90
78297;DHT22;67555;47.660;19.622;2024-03-22T15:18:39;16.40;47.90